Time;durP1;ratioP1;P1;durP2;ratioP2;P2;SDS_P1;SDS_P2;PMS_P1;PMS_P2;Temp;Humidity;BMP_temperature;BMP_pressure;BME280_temperature;BME280_humidity;BME280_pressure;Samples;Min_cycle;Max_cycle;Signal;HPM_P1;HPM_P2
2022/08/28 00:01:41;;;;;;;4.88;4.57;;;;;;;;;;5137954;27;20283;-66
2022/08/28 00:04:09;;;;;;;5.30;4.80;;;;;;;;;;5138675;27;20213;-66
2022/08/28 00:06:36;;;;;;;5.40;5.00;;;;;;;;;;5139147;27;20202;-66
2022/08/28 00:09:06;;;;;;;4.90;4.50;;;;;;;;;;5137592;27;20209;-66
2022/08/28 00:11:36;;;;;;;5.30;4.80;;;;;;;;;;5137202;27;20225;-66
2022/08/28 00:14:04;;;;;;;5.50;5.10;;;;;;;;;;5137503;27;20636;-66
2022/08/28 00:16:33;;;;;;;4.90;4.55;;;;;;;;;;5137957;27;20217;-67
2022/08/28 00:19:00;;;;;;;4.95;4.55;;;;;;;;;;5138609;27;20214;-67
2022/08/28 00:21:28;;;;;;;5.05;4.55;;;;;;;;;;5138404;27;20328;-66
2022/08/28 00:23:55;;;;;;;4.60;4.30;;;;;;;;;;5138308;27;20194;-66
2022/08/28 00:29:09;;;;;;;5.07;4.50;;;;;;;;;;5138207;27;20275;-67
2022/08/28 00:31:38;;;;;;;5.40;4.90;;;;;;;;;;5138334;27;20198;-67
2022/08/28 00:34:05;;;;;;;5.18;4.68;;;;;;;;;;5138037;27;20210;-67
2022/08/28 00:36:32;;;;;;;5.20;4.75;;;;;;;;;;5135796;28;20198;-66
2022/08/28 00:39:00;;;;;;;4.90;4.55;;;;;;;;;;5138158;28;20603;-67
2022/08/28 00:41:30;;;;;;;5.07;4.68;;;;;;;;;;5137513;28;20233;-66
2022/08/28 00:44:06;;;;;;;4.75;4.45;;;;;;;;;;5137417;28;20202;-66
2022/08/28 00:46:33;;;;;;;5.03;4.63;;;;;;;;;;5137966;28;20210;-66
2022/08/28 00:49:01;;;;;;;5.18;4.78;;;;;;;;;;5137739;28;20262;-66
2022/08/28 00:54:13;;;;;;;4.63;4.28;;;;;;;;;;5137225;28;20196;-66
2022/08/28 00:56:43;;;;;;;5.00;4.60;;;;;;;;;;5137743;28;20203;-66
2022/08/28 00:59:14;;;;;;;4.57;4.28;;;;;;;;;;5137753;28;20206;-66
2022/08/28 01:01:42;;;;;;;4.88;4.55;;;;;;;;;;5137820;28;20325;-66
2022/08/28 01:04:09;;;;;;;4.82;4.53;;;;;;;;;;5125755;27;20209;-66
2022/08/28 01:06:37;;;;;;;4.90;4.50;;;;;;;;;;5136600;28;20250;-66
2022/08/28 01:09:05;;;;;;;4.65;4.25;;;;;;;;;;5137571;27;20202;-66
2022/08/28 01:11:33;;;;;;;4.65;4.25;;;;;;;;;;5137854;28;20660;-67
2022/08/28 01:14:02;;;;;;;4.80;4.38;;;;;;;;;;5138006;27;20280;-66
2022/08/28 01:16:30;;;;;;;4.90;4.50;;;;;;;;;;5138009;27;20203;-66
2022/08/28 01:18:59;;;;;;;4.50;4.20;;;;;;;;;;5138177;28;20542;-66
2022/08/28 01:21:29;;;;;;;4.85;4.45;;;;;;;;;;5137928;28;20222;-66
2022/08/28 01:24:00;;;;;;;4.70;4.28;;;;;;;;;;5137368;28;20210;-66
2022/08/28 01:26:28;;;;;;;4.60;4.30;;;;;;;;;;5137529;27;20202;-66
2022/08/28 01:28:57;;;;;;;4.75;4.35;;;;;;;;;;5137958;27;20630;-66
2022/08/28 01:31:24;;;;;;;4.70;4.40;;;;;;;;;;5137286;28;20293;-66
2022/08/28 01:33:52;;;;;;;4.90;4.50;;;;;;;;;;5137692;28;20271;-66
2022/08/28 01:36:20;;;;;;;4.75;4.35;;;;;;;;;;5137592;28;20251;-66
2022/08/28 01:38:57;;;;;;;4.40;4.10;;;;;;;;;;5137406;28;20202;-66
2022/08/28 01:41:28;;;;;;;4.60;4.20;;;;;;;;;;5137617;28;20258;-66
2022/08/28 01:43:56;;;;;;;4.53;4.22;;;;;;;;;;5138615;27;20202;-66
2022/08/28 01:46:23;;;;;;;4.55;4.20;;;;;;;;;;5141655;27;20209;-66
2022/08/28 01:48:51;;;;;;;4.50;4.20;;;;;;;;;;5141220;27;20269;-66
2022/08/28 01:51:18;;;;;;;6.30;4.50;;;;;;;;;;5142154;27;20202;-66
2022/08/28 01:53:45;;;;;;;4.57;4.20;;;;;;;;;;5140655;27;20256;-66
2022/08/28 01:56:14;;;;;;;4.35;4.05;;;;;;;;;;5140426;27;20202;-66
2022/08/28 01:58:43;;;;;;;4.60;4.20;;;;;;;;;;5138871;27;20198;-66
2022/08/28 02:01:11;;;;;;;5.35;4.90;;;;;;;;;;5141234;27;20202;-66
2022/08/28 02:03:39;;;;;;;4.40;4.10;;;;;;;;;;5131641;27;20214;-67
2022/08/28 02:06:07;;;;;;;4.28;3.90;;;;;;;;;;5140827;27;20267;-66
2022/08/28 02:08:35;;;;;;;4.72;4.43;;;;;;;;;;5140604;27;20198;-66
2022/08/28 02:11:03;;;;;;;4.78;4.38;;;;;;;;;;5140819;27;20225;-66
2022/08/28 02:13:30;;;;;;;4.35;4.05;;;;;;;;;;5140685;27;20205;-66
2022/08/28 02:15:59;;;;;;;4.13;3.83;;;;;;;;;;5139977;27;20587;-67
2022/08/28 02:18:27;;;;;;;4.30;4.00;;;;;;;;;;5140414;27;20215;-67
2022/08/28 02:20:54;;;;;;;4.60;4.22;;;;;;;;;;5140040;27;20207;-67
2022/08/28 02:23:22;;;;;;;4.60;4.30;;;;;;;;;;5140293;27;20237;-67
2022/08/28 02:25:49;;;;;;;4.65;4.20;;;;;;;;;;5129975;27;20201;-66
2022/08/28 02:28:16;;;;;;;4.28;3.97;;;;;;;;;;5140184;27;20267;-66
2022/08/28 02:30:44;;;;;;;4.45;4.07;;;;;;;;;;5140064;27;20202;-66
2022/08/28 02:33:13;;;;;;;4.60;4.20;;;;;;;;;;5140619;27;20202;-66
2022/08/28 02:35:41;;;;;;;4.30;4.00;;;;;;;;;;5139924;27;20647;-66
2022/08/28 02:38:09;;;;;;;4.30;4.00;;;;;;;;;;5140182;27;20251;-67
2022/08/28 02:40:37;;;;;;;4.15;3.80;;;;;;;;;;5131883;27;20213;-66
2022/08/28 02:43:05;;;;;;;4.25;3.90;;;;;;;;;;5139753;27;20614;-67
2022/08/28 02:45:32;;;;;;;4.30;4.00;;;;;;;;;;5140199;27;20271;-67
2022/08/28 02:48:00;;;;;;;4.65;4.03;;;;;;;;;;5140336;27;20202;-66
2022/08/28 02:50:30;;;;;;;4.47;4.03;;;;;;;;;;5139773;27;20661;-66
2022/08/28 02:52:58;;;;;;;4.10;3.80;;;;;;;;;;5137033;27;20194;-66
2022/08/28 02:55:26;;;;;;;4.30;4.00;;;;;;;;;;5137873;27;20604;-66
2022/08/28 02:57:54;;;;;;;4.35;3.95;;;;;;;;;;5139412;27;20384;-66
2022/08/28 03:00:24;;;;;;;4.05;3.75;;;;;;;;;;5139615;27;20267;-67
2022/08/28 03:02:52;;;;;;;4.15;3.85;;;;;;;;;;5139474;27;20230;-66
2022/08/28 03:05:20;;;;;;;3.88;3.58;;;;;;;;;;5138709;27;20267;-66
2022/08/28 03:07:49;;;;;;;3.92;3.47;;;;;;;;;;5139322;27;20321;-67
2022/08/28 03:10:17;;;;;;;3.90;3.60;;;;;;;;;;5139474;27;20202;-67
2022/08/28 03:12:44;;;;;;;3.97;3.67;;;;;;;;;;5139450;27;20290;-66
2022/08/28 03:15:12;;;;;;;3.83;3.53;;;;;;;;;;5139838;27;20202;-66
2022/08/28 03:17:40;;;;;;;4.10;3.80;;;;;;;;;;5139343;27;20210;-66
2022/08/28 03:20:08;;;;;;;4.28;3.83;;;;;;;;;;5132152;27;20264;-66
2022/08/28 03:25:23;;;;;;;4.00;3.70;;;;;;;;;;5139231;27;20197;-66
2022/08/28 03:27:51;;;;;;;4.05;3.70;;;;;;;;;;5139074;27;20205;-66
2022/08/28 03:30:19;;;;;;;3.70;3.40;;;;;;;;;;5139370;27;20308;-66
2022/08/28 03:32:47;;;;;;;3.83;3.53;;;;;;;;;;5139456;27;20198;-66
2022/08/28 03:35:15;;;;;;;3.50;3.20;;;;;;;;;;5138733;27;20214;-66
2022/08/28 03:37:43;;;;;;;3.88;3.45;;;;;;;;;;5139111;27;20210;-67
2022/08/28 03:40:11;;;;;;;3.90;3.60;;;;;;;;;;5138383;27;20202;-66
2022/08/28 03:42:39;;;;;;;3.42;3.15;;;;;;;;;;5139183;27;20519;-66
2022/08/28 03:45:09;;;;;;;4.00;3.53;;;;;;;;;;5139353;27;20210;-66
2022/08/28 03:47:37;;;;;;;3.40;3.10;;;;;;;;;;5128396;27;20202;-66
2022/08/28 03:50:05;;;;;;;3.42;3.22;;;;;;;;;;5138780;27;20210;-66
2022/08/28 03:52:32;;;;;;;3.47;3.28;;;;;;;;;;5138993;27;20490;-66
2022/08/28 03:55:00;;;;;;;3.78;3.47;;;;;;;;;;5138504;27;20496;-66
2022/08/28 03:57:27;;;;;;;3.42;3.13;;;;;;;;;;5122404;27;20200;-66
2022/08/28 03:59:56;;;;;;;3.75;3.45;;;;;;;;;;5138700;27;20213;-66
2022/08/28 04:02:23;;;;;;;3.60;3.30;;;;;;;;;;5138907;27;20225;-66
2022/08/28 04:04:51;;;;;;;3.53;3.22;;;;;;;;;;5138081;27;20206;-66
2022/08/28 04:07:19;;;;;;;3.17;2.88;;;;;;;;;;5138632;27;20202;-66
2022/08/28 04:09:47;;;;;;;3.40;3.00;;;;;;;;;;5138314;27;20202;-66
2022/08/28 04:12:14;;;;;;;2.90;2.70;;;;;;;;;;5138183;27;20194;-66
2022/08/28 04:14:42;;;;;;;3.63;3.33;;;;;;;;;;5138761;27;20803;-66
2022/08/28 04:17:11;;;;;;;3.25;3.05;;;;;;;;;;5138241;27;20203;-66
2022/08/28 04:19:38;;;;;;;3.30;3.00;;;;;;;;;;5138598;27;20247;-66
2022/08/28 04:22:07;;;;;;;2.95;2.75;;;;;;;;;;5138694;27;20206;-66
2022/08/28 04:24:34;;;;;;;3.20;3.00;;;;;;;;;;5138128;27;20291;-66
2022/08/28 04:27:02;;;;;;;3.33;3.03;;;;;;;;;;5138728;27;20752;-66
2022/08/28 04:29:30;;;;;;;2.85;2.65;;;;;;;;;;5138294;27;20210;-66
2022/08/28 04:31:58;;;;;;;3.10;2.90;;;;;;;;;;5138516;27;20644;-66
2022/08/28 04:34:26;;;;;;;2.60;2.40;;;;;;;;;;5139213;27;20202;-66
2022/08/28 04:36:54;;;;;;;2.70;2.50;;;;;;;;;;5138332;27;20226;-67
2022/08/28 04:39:22;;;;;;;2.80;2.60;;;;;;;;;;5138501;28;20201;-67
2022/08/28 04:41:49;;;;;;;3.10;2.80;;;;;;;;;;5138231;28;20636;-66
2022/08/28 04:44:17;;;;;;;2.90;2.60;;;;;;;;;;5134486;28;20227;-66
2022/08/28 04:46:45;;;;;;;2.80;2.60;;;;;;;;;;5131414;27;20578;-66
2022/08/28 04:49:13;;;;;;;3.13;2.83;;;;;;;;;;5138423;27;20202;-67
2022/08/28 04:51:42;;;;;;;2.70;2.50;;;;;;;;;;5138503;27;20543;-66
2022/08/28 04:54:10;;;;;;;2.50;2.30;;;;;;;;;;5138112;28;20499;-66
2022/08/28 04:56:39;;;;;;;3.00;2.80;;;;;;;;;;5137816;27;20252;-66
2022/08/28 04:59:07;;;;;;;2.80;2.53;;;;;;;;;;5138288;27;20202;-66
2022/08/28 05:01:34;;;;;;;2.83;2.63;;;;;;;;;;5138742;27;20202;-66
2022/08/28 05:04:02;;;;;;;3.15;2.78;;;;;;;;;;5138098;28;20233;-66
2022/08/28 05:06:32;;;;;;;4.22;2.53;;;;;;;;;;5137822;27;20198;-66
2022/08/28 05:09:01;;;;;;;2.92;2.60;;;;;;;;;;5138190;27;20206;-66
2022/08/28 05:11:31;;;;;;;2.47;2.28;;;;;;;;;;5136033;28;20198;-66
2022/08/28 05:13:58;;;;;;;2.60;2.40;;;;;;;;;;5138232;28;20217;-66
2022/08/28 05:16:25;;;;;;;3.70;2.42;;;;;;;;;;5138105;28;20594;-66
2022/08/28 05:18:53;;;;;;;2.30;2.20;;;;;;;;;;5138854;27;20565;-66
2022/08/28 05:21:22;;;;;;;2.72;2.47;;;;;;;;;;5142034;27;20213;-66
2022/08/28 05:23:50;;;;;;;2.60;2.40;;;;;;;;;;5141832;27;20222;-66
2022/08/28 05:26:19;;;;;;;3.08;2.35;;;;;;;;;;5142019;27;20242;-66
2022/08/28 05:28:47;;;;;;;2.47;2.22;;;;;;;;;;5141891;27;20255;-66
2022/08/28 05:31:15;;;;;;;2.30;2.10;;;;;;;;;;5141569;27;20209;-66
2022/08/28 05:33:43;;;;;;;2.90;2.40;;;;;;;;;;5141830;27;20296;-66
2022/08/28 05:36:11;;;;;;;3.28;2.20;;;;;;;;;;5141683;27;20210;-66
2022/08/28 05:38:39;;;;;;;2.33;2.10;;;;;;;;;;5139736;27;20255;-66
2022/08/28 05:41:07;;;;;;;2.20;2.00;;;;;;;;;;5140763;27;20266;-66
2022/08/28 05:43:36;;;;;;;2.08;1.98;;;;;;;;;;5141453;27;20237;-66
2022/08/28 05:46:06;;;;;;;2.40;2.20;;;;;;;;;;5139884;27;20259;-66
2022/08/28 05:48:34;;;;;;;2.30;2.10;;;;;;;;;;5141866;27;20526;-66
2022/08/28 05:51:06;;;;;;;2.10;1.98;;;;;;;;;;5141361;27;20566;-66
2022/08/28 05:53:34;;;;;;;2.28;2.10;;;;;;;;;;5141455;27;20202;-66
2022/08/28 05:56:03;;;;;;;2.00;1.90;;;;;;;;;;5141055;27;20570;-67
2022/08/28 05:58:32;;;;;;;2.08;1.90;;;;;;;;;;5140756;27;20637;-66
2022/08/28 06:01:09;;;;;;;2.20;2.00;;;;;;;;;;5140947;27;20616;-66
2022/08/28 06:03:37;;;;;;;3.15;2.08;;;;;;;;;;5132500;27;20230;-67
2022/08/28 06:06:04;;;;;;;2.50;1.92;;;;;;;;;;5124159;27;20238;-66
2022/08/28 06:08:31;;;;;;;2.83;2.00;;;;;;;;;;5140113;27;20221;-66
2022/08/28 06:11:00;;;;;;;2.42;2.13;;;;;;;;;;5141031;27;20202;-67
2022/08/28 06:13:28;;;;;;;2.40;2.00;;;;;;;;;;5140901;27;20198;-67
2022/08/28 06:15:56;;;;;;;2.00;1.85;;;;;;;;;;5140489;27;20203;-67
2022/08/28 06:18:25;;;;;;;2.15;2.00;;;;;;;;;;5140049;27;20194;-67
2022/08/28 06:20:53;;;;;;;1.83;1.73;;;;;;;;;;5140717;27;20235;-66
2022/08/28 06:23:21;;;;;;;1.75;1.63;;;;;;;;;;5140336;27;20233;-67
2022/08/28 06:25:50;;;;;;;1.95;1.73;;;;;;;;;;5140341;27;20470;-66
2022/08/28 06:28:20;;;;;;;2.22;2.00;;;;;;;;;;5140636;27;20202;-66
2022/08/28 06:30:47;;;;;;;1.60;1.50;;;;;;;;;;5140058;27;20284;-66
2022/08/28 06:33:16;;;;;;;2.22;2.00;;;;;;;;;;5139847;27;20621;-67
2022/08/28 06:35:46;;;;;;;2.00;1.80;;;;;;;;;;5140031;27;20289;-66
2022/08/28 06:38:13;;;;;;;2.05;1.85;;;;;;;;;;5140558;27;20202;-66
2022/08/28 06:40:41;;;;;;;1.70;1.60;;;;;;;;;;5140358;27;20210;-67
2022/08/28 06:43:09;;;;;;;2.03;1.83;;;;;;;;;;5140545;27;20246;-67
2022/08/28 06:45:40;;;;;;;1.95;1.80;;;;;;;;;;5139065;27;20198;-66
2022/08/28 06:48:08;;;;;;;1.70;1.60;;;;;;;;;;5139461;27;20217;-67
2022/08/28 06:50:38;;;;;;;1.88;1.70;;;;;;;;;;5139804;27;20210;-66
2022/08/28 06:53:07;;;;;;;1.50;1.40;;;;;;;;;;5139360;27;20471;-66
2022/08/28 06:55:35;;;;;;;1.83;1.70;;;;;;;;;;5139353;27;20577;-67
2022/08/28 06:58:03;;;;;;;1.75;1.60;;;;;;;;;;5139643;27;20243;-66
2022/08/28 07:00:30;;;;;;;1.88;1.70;;;;;;;;;;5136538;27;20570;-66
2022/08/28 07:02:57;;;;;;;1.60;1.50;;;;;;;;;;5139177;27;20198;-67
2022/08/28 07:05:25;;;;;;;2.05;1.80;;;;;;;;;;5139469;27;20206;-67
2022/08/28 07:07:53;;;;;;;2.22;1.73;;;;;;;;;;5139221;27;20464;-66
2022/08/28 07:10:22;;;;;;;2.13;1.85;;;;;;;;;;5139937;27;20247;-66
2022/08/28 07:12:50;;;;;;;2.42;1.85;;;;;;;;;;5138785;27;20210;-66
2022/08/28 07:15:17;;;;;;;1.95;1.70;;;;;;;;;;5138671;27;20780;-66
2022/08/28 07:17:45;;;;;;;1.92;1.67;;;;;;;;;;5138369;27;20208;-67
2022/08/28 07:20:12;;;;;;;1.80;1.70;;;;;;;;;;5138742;27;20547;-67
2022/08/28 07:22:39;;;;;;;2.15;1.70;;;;;;;;;;5139386;27;20598;-66
2022/08/28 07:25:08;;;;;;;1.50;1.40;;;;;;;;;;5139016;27;20278;-67
2022/08/28 07:27:37;;;;;;;1.52;1.42;;;;;;;;;;5126491;27;20671;-66
2022/08/28 07:30:05;;;;;;;1.58;1.42;;;;;;;;;;5134774;27;20687;-67
2022/08/28 07:32:32;;;;;;;1.98;1.77;;;;;;;;;;5138898;27;20205;-66
2022/08/28 07:35:00;;;;;;;2.15;1.70;;;;;;;;;;5139448;27;20285;-66
2022/08/28 07:37:27;;;;;;;1.95;1.73;;;;;;;;;;5139056;27;20621;-66
2022/08/28 07:39:55;;;;;;;2.00;1.70;;;;;;;;;;5138582;27;20235;-67
2022/08/28 07:45:20;;;;;;;2.13;1.50;;;;;;;;;;5035441;28;20387;-67
2022/08/28 07:47:47;;;;;;;1.70;1.42;;;;;;;;;;5114619;27;20194;-67
2022/08/28 07:50:15;;;;;;;2.10;1.70;;;;;;;;;;5138356;27;20254;-67
2022/08/28 07:52:42;;;;;;;2.13;1.50;;;;;;;;;;5138452;27;20232;-67
2022/08/28 07:55:10;;;;;;;1.70;1.60;;;;;;;;;;5137570;27;20312;-68
2022/08/28 07:57:37;;;;;;;2.45;1.50;;;;;;;;;;5138267;27;20455;-67
2022/08/28 08:00:05;;;;;;;1.65;1.55;;;;;;;;;;5138930;27;20208;-68
2022/08/28 08:02:34;;;;;;;1.63;1.40;;;;;;;;;;5140094;27;20216;-67
2022/08/28 08:05:01;;;;;;;1.73;1.63;;;;;;;;;;5139415;27;20236;-67
2022/08/28 08:07:29;;;;;;;1.48;1.25;;;;;;;;;;5137325;27;20251;-67
2022/08/28 08:09:56;;;;;;;1.73;1.42;;;;;;;;;;5137592;27;20213;-68
2022/08/28 08:12:24;;;;;;;1.83;1.55;;;;;;;;;;5137968;27;20202;-68
2022/08/28 08:14:51;;;;;;;1.70;1.60;;;;;;;;;;5136874;27;20209;-68
2022/08/28 08:17:20;;;;;;;2.20;1.45;;;;;;;;;;5137512;27;20208;-67
2022/08/28 08:19:50;;;;;;;2.83;1.42;;;;;;;;;;5138423;27;20314;-67
2022/08/28 08:22:17;;;;;;;1.90;1.70;;;;;;;;;;5137374;27;20510;-67
2022/08/28 08:24:45;;;;;;;1.60;1.50;;;;;;;;;;5137498;27;20298;-67
2022/08/28 08:27:12;;;;;;;1.98;1.40;;;;;;;;;;5137003;27;20198;-67
2022/08/28 08:29:39;;;;;;;2.13;1.45;;;;;;;;;;5137256;27;20262;-67
2022/08/28 08:32:07;;;;;;;3.83;1.73;;;;;;;;;;5137688;27;20202;-67
2022/08/28 08:34:37;;;;;;;2.05;1.48;;;;;;;;;;5137307;27;20655;-67
2022/08/28 08:37:06;;;;;;;2.60;1.70;;;;;;;;;;5137774;27;20206;-68
2022/08/28 08:39:33;;;;;;;1.65;1.33;;;;;;;;;;5137295;27;20202;-67
2022/08/28 08:42:01;;;;;;;1.80;1.50;;;;;;;;;;5136779;28;20337;-67
2022/08/28 08:44:29;;;;;;;1.80;1.42;;;;;;;;;;5137443;27;20302;-67
2022/08/28 08:47:04;;;;;;;3.22;1.83;;;;;;;;;;5137392;27;20198;-67
2022/08/28 08:49:33;;;;;;;1.77;1.42;;;;;;;;;;5137133;28;20212;-67
2022/08/28 08:52:06;;;;;;;2.25;1.70;;;;;;;;;;5136511;27;20293;-67
2022/08/28 08:54:35;;;;;;;1.75;1.65;;;;;;;;;;5139307;27;20194;-67
2022/08/28 08:57:02;;;;;;;1.95;1.60;;;;;;;;;;5141594;27;20204;-67
2022/08/28 08:59:33;;;;;;;2.00;1.77;;;;;;;;;;5141468;27;20202;-67
2022/08/28 09:02:03;;;;;;;4.10;1.80;;;;;;;;;;5141406;27;20710;-68
2022/08/28 09:04:35;;;;;;;2.58;1.65;;;;;;;;;;5141174;27;20264;-67
2022/08/28 09:07:04;;;;;;;1.85;1.48;;;;;;;;;;5141454;27;20285;-67
2022/08/28 09:09:32;;;;;;;2.78;1.63;;;;;;;;;;5141083;27;20265;-68
2022/08/28 09:12:03;;;;;;;2.17;1.50;;;;;;;;;;5140314;27;20213;-67
2022/08/28 09:14:35;;;;;;;1.73;1.33;;;;;;;;;;5141164;27;20226;-67
2022/08/28 09:17:03;;;;;;;1.73;1.60;;;;;;;;;;5138587;27;20190;-67
2022/08/28 09:19:30;;;;;;;1.63;1.50;;;;;;;;;;5141101;27;20606;-67
2022/08/28 09:21:58;;;;;;;2.25;1.63;;;;;;;;;;5140570;27;20198;-67
2022/08/28 09:24:27;;;;;;;1.90;1.70;;;;;;;;;;5140115;27;20282;-67
2022/08/28 09:26:56;;;;;;;1.77;1.67;;;;;;;;;;5140033;27;20586;-67
2022/08/28 09:29:30;;;;;;;1.90;1.70;;;;;;;;;;5139492;27;20198;-67
2022/08/28 09:31:57;;;;;;;1.90;1.73;;;;;;;;;;5139480;27;20210;-68
2022/08/28 09:34:29;;;;;;;2.00;1.80;;;;;;;;;;5140341;27;20206;-67
2022/08/28 09:36:57;;;;;;;1.77;1.67;;;;;;;;;;5139781;27;20263;-67
2022/08/28 09:39:25;;;;;;;1.70;1.60;;;;;;;;;;5139559;27;20237;-67
2022/08/28 09:45:06;;;;;;;2.47;1.80;;;;;;;;;;5125690;27;20314;-68
2022/08/28 09:47:43;;;;;;;1.98;1.70;;;;;;;;;;5109083;27;20202;-67
2022/08/28 09:50:31;;;;;;;2.90;1.85;;;;;;;;;;5152555;27;20194;-67
2022/08/28 09:52:59;;;;;;;2.30;1.70;;;;;;;;;;5130940;27;20252;-68
2022/08/28 09:55:38;;;;;;;2.05;1.63;;;;;;;;;;5139479;27;20206;-67
2022/08/28 09:58:06;;;;;;;2.65;2.10;;;;;;;;;;5139457;27;20309;-67
2022/08/28 10:00:36;;;;;;;3.65;1.98;;;;;;;;;;5139127;27;20270;-67
2022/08/28 10:03:08;;;;;;;2.88;2.10;;;;;;;;;;5139919;27;20210;-66
2022/08/28 10:05:38;;;;;;;2.38;2.10;;;;;;;;;;5138786;27;20262;-66
2022/08/28 10:08:09;;;;;;;2.88;2.10;;;;;;;;;;5139841;27;20202;-66
2022/08/28 10:10:40;;;;;;;3.70;2.00;;;;;;;;;;5138577;27;20193;-66
2022/08/28 10:13:11;;;;;;;2.33;2.13;;;;;;;;;;5137954;27;20260;-67
2022/08/28 10:15:49;;;;;;;2.28;1.92;;;;;;;;;;5137860;27;20639;-67
2022/08/28 10:18:33;;;;;;;2.15;1.90;;;;;;;;;;5138630;27;20210;-67
2022/08/28 10:21:03;;;;;;;3.05;1.80;;;;;;;;;;5138704;27;20475;-67
2022/08/28 10:23:33;;;;;;;2.20;2.03;;;;;;;;;;5138421;27;20570;-68
2022/08/28 10:26:05;;;;;;;3.03;2.05;;;;;;;;;;5138511;27;20241;-67
2022/08/28 10:28:38;;;;;;;3.58;2.05;;;;;;;;;;5139631;27;20225;-67
2022/08/28 10:31:10;;;;;;;2.83;2.42;;;;;;;;;;5138550;27;20237;-67
2022/08/28 10:33:45;;;;;;;2.67;2.08;;;;;;;;;;5138730;27;20556;-67
2022/08/28 10:36:18;;;;;;;2.60;2.13;;;;;;;;;;5138554;27;20198;-67
2022/08/28 10:38:47;;;;;;;2.33;2.13;;;;;;;;;;5137777;27;20208;-67
2022/08/28 10:41:17;;;;;;;2.55;2.35;;;;;;;;;;5118719;27;20271;-67
2022/08/28 10:43:46;;;;;;;3.55;2.50;;;;;;;;;;5138409;27;20262;-67
2022/08/28 10:46:14;;;;;;;2.50;2.30;;;;;;;;;;5137453;27;20229;-67
2022/08/28 10:48:46;;;;;;;2.60;2.03;;;;;;;;;;5137780;27;20266;-67
2022/08/28 10:51:17;;;;;;;3.53;2.00;;;;;;;;;;5137282;27;20217;-67
2022/08/28 10:53:47;;;;;;;2.42;2.20;;;;;;;;;;5136756;27;20214;-67
2022/08/28 10:56:16;;;;;;;2.33;2.13;;;;;;;;;;5137827;27;20197;-67
2022/08/28 10:58:43;;;;;;;3.22;2.30;;;;;;;;;;5138186;27;20210;-67
2022/08/28 11:01:22;;;;;;;2.35;2.15;;;;;;;;;;5138519;27;20251;-67
2022/08/28 11:03:51;;;;;;;2.75;2.25;;;;;;;;;;5138490;27;20634;-66
2022/08/28 11:06:23;;;;;;;2.60;2.40;;;;;;;;;;5136161;27;20229;-66
2022/08/28 11:08:51;;;;;;;2.70;2.50;;;;;;;;;;5136673;27;20205;-67
2022/08/28 11:11:39;;;;;;;2.63;2.40;;;;;;;;;;5137529;27;20202;-66
2022/08/28 11:14:06;;;;;;;1.98;1.88;;;;;;;;;;5136815;27;20202;-66
2022/08/28 11:16:37;;;;;;;2.38;2.17;;;;;;;;;;5136590;27;20213;-67
2022/08/28 11:19:28;;;;;;;3.55;2.65;;;;;;;;;;5137050;27;20267;-67
2022/08/28 11:22:03;;;;;;;3.10;2.80;;;;;;;;;;5111851;27;20198;-67
2022/08/28 11:24:42;;;;;;;2.50;2.20;;;;;;;;;;5137229;27;20476;-67
2022/08/28 11:27:22;;;;;;;2.80;2.50;;;;;;;;;;5136889;27;20202;-67
2022/08/28 11:30:08;;;;;;;3.15;2.72;;;;;;;;;;5130786;27;20194;-67
2022/08/28 11:32:40;;;;;;;3.42;2.50;;;;;;;;;;5137266;27;20205;-67
2022/08/28 11:35:28;;;;;;;2.63;2.42;;;;;;;;;;5137096;27;20279;-66
2022/08/28 11:37:57;;;;;;;2.60;2.40;;;;;;;;;;5137200;27;20202;-67
2022/08/28 11:40:39;;;;;;;2.67;2.47;;;;;;;;;;5138080;27;20209;-67
2022/08/28 11:43:22;;;;;;;3.13;2.28;;;;;;;;;;5136476;27;20280;-67
2022/08/28 11:46:07;;;;;;;2.60;2.40;;;;;;;;;;5137031;27;20257;-67
2022/08/28 11:48:48;;;;;;;2.67;2.47;;;;;;;;;;5137941;27;20203;-67
2022/08/28 11:51:28;;;;;;;2.60;2.40;;;;;;;;;;5137130;27;20202;-67
2022/08/28 11:54:00;;;;;;;2.78;2.50;;;;;;;;;;5137025;27;20198;-66
2022/08/28 11:56:41;;;;;;;2.92;2.50;;;;;;;;;;5136995;27;20202;-67
2022/08/28 11:59:23;;;;;;;2.70;2.50;;;;;;;;;;5137424;27;20235;-67
2022/08/28 12:01:50;;;;;;;2.83;2.38;;;;;;;;;;5135651;27;20206;-68
2022/08/28 12:04:19;;;;;;;2.50;2.30;;;;;;;;;;5135805;27;20202;-67
2022/08/28 12:06:48;;;;;;;2.88;2.53;;;;;;;;;;5136377;27;20255;-67
2022/08/28 12:09:30;;;;;;;2.90;2.55;;;;;;;;;;5136796;27;20206;-67
2022/08/28 12:12:00;;;;;;;2.88;2.60;;;;;;;;;;5134907;27;20270;-66
2022/08/28 12:14:46;;;;;;;2.80;2.60;;;;;;;;;;5136418;27;20605;-67
2022/08/28 12:17:19;;;;;;;3.28;2.65;;;;;;;;;;5135929;27;20202;-67
2022/08/28 12:19:48;;;;;;;2.97;2.70;;;;;;;;;;5136366;27;20202;-66
2022/08/28 12:22:16;;;;;;;2.72;2.53;;;;;;;;;;5134616;27;20693;-66
2022/08/28 12:24:47;;;;;;;3.03;2.47;;;;;;;;;;5135602;27;20209;-67
2022/08/28 12:27:16;;;;;;;2.50;2.30;;;;;;;;;;5134433;27;20194;-68
2022/08/28 12:29:47;;;;;;;2.90;2.60;;;;;;;;;;5135375;27;20266;-66
2022/08/28 12:32:24;;;;;;;2.55;2.20;;;;;;;;;;5134870;27;20210;-66
2022/08/28 12:35:04;;;;;;;2.78;2.33;;;;;;;;;;5135149;27;20447;-66
2022/08/28 12:37:33;;;;;;;3.15;2.10;;;;;;;;;;5135220;27;20387;-66
2022/08/28 12:40:05;;;;;;;2.92;2.38;;;;;;;;;;5134792;27;20210;-67
2022/08/28 12:42:36;;;;;;;2.63;2.42;;;;;;;;;;5134320;27;20280;-67
2022/08/28 12:45:05;;;;;;;3.15;2.90;;;;;;;;;;5134845;27;20225;-67
2022/08/28 12:47:33;;;;;;;2.92;2.63;;;;;;;;;;5135007;27;20567;-66
2022/08/28 12:50:15;;;;;;;2.92;2.72;;;;;;;;;;5134204;28;20209;-67
2022/08/28 12:52:48;;;;;;;2.83;2.63;;;;;;;;;;5134324;28;20639;-66
2022/08/28 12:55:15;;;;;;;2.70;2.50;;;;;;;;;;5133249;27;20186;-66
2022/08/28 12:57:46;;;;;;;3.08;2.78;;;;;;;;;;5134139;28;20289;-66
2022/08/28 13:00:17;;;;;;;3.03;2.60;;;;;;;;;;5134423;28;20565;-67
2022/08/28 13:02:45;;;;;;;2.60;2.40;;;;;;;;;;5134368;27;20701;-67
2022/08/28 13:05:21;;;;;;;2.50;2.30;;;;;;;;;;5135359;28;20283;-66
2022/08/28 13:07:54;;;;;;;2.88;2.50;;;;;;;;;;5135294;27;20206;-67
2022/08/28 13:10:24;;;;;;;2.47;2.28;;;;;;;;;;5133424;27;20202;-67
2022/08/28 13:12:55;;;;;;;3.28;2.50;;;;;;;;;;5132352;28;20234;-67
2022/08/28 13:15:41;;;;;;;2.67;2.47;;;;;;;;;;5131853;27;20307;-67
2022/08/28 13:18:10;;;;;;;2.65;2.45;;;;;;;;;;5131661;27;20606;-66
2022/08/28 13:20:38;;;;;;;2.80;2.58;;;;;;;;;;5132328;28;20236;-67
2022/08/28 13:23:06;;;;;;;3.13;2.70;;;;;;;;;;5131100;28;20478;-67
2022/08/28 13:25:35;;;;;;;2.60;2.40;;;;;;;;;;5133114;28;20266;-66
2022/08/28 13:28:05;;;;;;;3.05;2.53;;;;;;;;;;5133707;28;20334;-66
2022/08/28 13:30:33;;;;;;;2.95;2.65;;;;;;;;;;5134141;28;20216;-66
2022/08/28 13:33:03;;;;;;;2.78;2.58;;;;;;;;;;5133893;28;20259;-67
2022/08/28 13:35:35;;;;;;;2.38;2.20;;;;;;;;;;5134015;28;20191;-67
2022/08/28 13:38:03;;;;;;;2.78;2.58;;;;;;;;;;5134174;28;20210;-67
2022/08/28 13:40:32;;;;;;;2.78;2.58;;;;;;;;;;5135724;27;20202;-67
2022/08/28 13:43:01;;;;;;;2.63;2.42;;;;;;;;;;5134136;27;20298;-67
2022/08/28 13:45:29;;;;;;;2.75;2.50;;;;;;;;;;5128596;27;20230;-66
2022/08/28 13:47:57;;;;;;;2.53;2.33;;;;;;;;;;5138045;27;20210;-66
2022/08/28 13:50:26;;;;;;;2.58;2.38;;;;;;;;;;5137638;27;20617;-66
2022/08/28 13:52:53;;;;;;;2.33;2.22;;;;;;;;;;5136831;27;20272;-67
2022/08/28 13:55:21;;;;;;;2.63;2.42;;;;;;;;;;5137668;27;20539;-67
2022/08/28 13:57:48;;;;;;;2.80;2.60;;;;;;;;;;5134778;27;20454;-66
2022/08/28 14:00:16;;;;;;;3.00;2.70;;;;;;;;;;5137152;27;20229;-67
2022/08/28 14:05:29;;;;;;;2.90;2.55;;;;;;;;;;5137316;27;20240;-67
2022/08/28 14:07:58;;;;;;;2.75;2.55;;;;;;;;;;5137670;27;20213;-66
2022/08/28 14:10:26;;;;;;;2.78;2.58;;;;;;;;;;5137585;27;20217;-67
2022/08/28 14:12:53;;;;;;;3.05;2.60;;;;;;;;;;5136340;27;20675;-67
2022/08/28 14:15:20;;;;;;;2.70;2.50;;;;;;;;;;5137238;27;20264;-66
2022/08/28 14:17:49;;;;;;;2.72;2.53;;;;;;;;;;5135984;27;20210;-66
2022/08/28 14:20:16;;;;;;;3.20;2.90;;;;;;;;;;5136827;27;20582;-67
2022/08/28 14:22:44;;;;;;;3.00;2.60;;;;;;;;;;5136216;27;20202;-66
2022/08/28 14:25:12;;;;;;;3.00;2.80;;;;;;;;;;5136056;27;20533;-67
2022/08/28 14:27:39;;;;;;;2.78;2.58;;;;;;;;;;5135183;27;20564;-67
2022/08/28 14:30:07;;;;;;;2.88;2.58;;;;;;;;;;5135880;27;20650;-66
2022/08/28 14:32:34;;;;;;;3.47;2.65;;;;;;;;;;5135350;27;20199;-67
2022/08/28 14:35:04;;;;;;;2.90;2.70;;;;;;;;;;5135197;27;20576;-67
2022/08/28 14:37:32;;;;;;;2.92;2.72;;;;;;;;;;5134788;27;20212;-66
2022/08/28 14:39:59;;;;;;;3.22;2.85;;;;;;;;;;5134939;27;20312;-67
2022/08/28 14:42:26;;;;;;;3.20;2.92;;;;;;;;;;5134995;27;20598;-67
2022/08/28 14:44:54;;;;;;;3.08;2.70;;;;;;;;;;5135440;27;20266;-67
2022/08/28 14:47:21;;;;;;;2.67;2.47;;;;;;;;;;5135646;27;20222;-67
2022/08/28 14:49:48;;;;;;;3.00;2.80;;;;;;;;;;5135043;27;20459;-67
2022/08/28 14:52:18;;;;;;;3.42;2.72;;;;;;;;;;5133828;27;20206;-67
2022/08/28 14:54:46;;;;;;;2.80;2.60;;;;;;;;;;5134743;27;20194;-67
2022/08/28 14:57:15;;;;;;;3.50;3.00;;;;;;;;;;5135855;27;20234;-66
2022/08/28 14:59:44;;;;;;;2.88;2.67;;;;;;;;;;5135845;27;20593;-67
2022/08/28 15:02:12;;;;;;;3.53;3.08;;;;;;;;;;5134816;27;20364;-66
2022/08/28 15:04:39;;;;;;;2.70;2.50;;;;;;;;;;5134718;27;20226;-67
2022/08/28 15:07:09;;;;;;;2.75;2.55;;;;;;;;;;5135096;27;20226;-66
2022/08/28 15:09:39;;;;;;;3.30;3.00;;;;;;;;;;5136316;27;20294;-67
2022/08/28 15:12:07;;;;;;;3.05;2.85;;;;;;;;;;5136976;27;20259;-67
2022/08/28 15:14:34;;;;;;;3.17;2.85;;;;;;;;;;5136484;27;20202;-67